HKML

Malindi Airport

Malindi, Kenya
METAR HKML 171900Z 10006KT 9999 FEW021 26/24 Q1011
Observed Flight Rules
Oct-17 @ 19:00 UTC (an hour ago) Visual Flight Rules
Wind Visibility Clouds
100° at 6 knots 10,000+ meters
  • Few at 2,100' AGL
Temperatures Readings
Current 26°C / 79°F
Dewpoint 24°C / 75°F
Humidity 89%
Altimeter 29.85" Hg
Pressure 1011 hPa
Elevation 23
METAR HKML 171900Z 10006KT 9999 FEW021 26/24 Q1011
Observed Flight Rules
Oct-17 @ 19:00 UTC
(an hour ago)
VFR
Wind Visibility
100° at 6 knots 10,000+ meters
Clouds
  • Few at 2,100' AGL
Temperature Dewpoint
26°C / 79°F 24°C / 75°F
Humidity Altimeter Pressure
89% 29.85" Hg 1011 hPa